A05 Elcamino Espanol — EBQE — position and weather

sailwx.info

Track history (hours):
 
Tides and Currents Weather Stations Pressure Air Temp Water Temp Dewpoint Dewpoint Depression Visibility Wind Speed Wind Dir Waves Ship Positions

A05 Elcamino Espanol

Last reported at 2018-Mar-13 15:59 UTC. Time now 2018-May-22 19:37 UTC.
Position N 35°56' W 005°12'.
Warning: this ship's position is months out of date.

Length 96 m.

MMSI: 224100000.

Date/timePositionNaut miles runAvg speedWind from/ knotsBaromVisibWave heightAir tempDewpointWater temp
2018-Mar-13 15:59N 35°56' W 005°12'510.5
2018-Mar-13 15:30N 35°54' W 005°18'1 1.6
2018-Mar-13 15:00N 35°54' W 005°19'0 0.0
2018-Mar-13 14:31N 35°54' W 005°19'0 0.0
2018-Mar-13 14:01N 35°54' W 005°19'0 0.0
2018-Mar-13 13:31N 35°54' W 005°19'0 0.0
2018-Mar-13 13:01N 35°54' W 005°19'0 0.0
2018-Mar-13 12:31N 35°54' W 005°19'0 0.0
2018-Mar-13 12:01N 35°54' W 005°19'0 0.0
2018-Mar-13 11:31N 35°54' W 005°19'0 0.0
2018-Mar-13 11:00N 35°54' W 005°19'0 0.0
2018-Mar-13 10:30N 35°54' W 005°19'0 0.0
2018-Mar-13 10:01N 35°54' W 005°19'1 2.7
2018-Mar-13 09:30N 35°55' W 005°18'241 7.5
2018-Mar-12 01:18N 37°33' W 000°42'3 6.3
2018-Mar-12 00:54N 37°33' W 000°39'2 5.8
2018-Mar-12 00:30N 37°34' W 000°36'3 5.2
2018-Mar-12 00:00N 37°35' W 000°33'3 6.0
2018-Mar-11 23:30N 37°37' W 000°31'3 6.8
2018-Mar-11 23:00N 37°40' W 000°29'4 7.6
2018-Mar-11 22:30N 37°43' W 000°27'  
2018-Mar-09 11:47N 37°39' W 000°34'312.6
2018-Mar-09 11:30N 37°36' W 000°37'612.2
2018-Mar-09 10:59N 37°33' W 000°44'  
Track history (hours):
 
Tides and Currents Weather Stations Pressure Air Temp Water Temp Dewpoint Dewpoint Depression Visibility Wind Speed Wind Dir Waves Ship Positions

A05 Elcamino Espanol

Last reported at 2018-Mar-13 15:59 UTC. Time now 2018-May-22 19:37 UTC.
Position N 35°56' W 005°12'.
Warning: this ship's position is months out of date.

Length 96 m.

MMSI: 224100000.

Date/timePositionNaut miles runAvg speedWind from/ knotsBaromVisibWave heightAir tempDewpointWater temp
2018-Mar-13 15:59N 35°56' W 005°12'510.5
2018-Mar-13 15:30N 35°54' W 005°18'1 1.6
2018-Mar-13 15:00N 35°54' W 005°19'0 0.0
2018-Mar-13 14:31N 35°54' W 005°19'0 0.0
2018-Mar-13 14:01N 35°54' W 005°19'0 0.0
2018-Mar-13 13:31N 35°54' W 005°19'0 0.0
2018-Mar-13 13:01N 35°54' W 005°19'0 0.0
2018-Mar-13 12:31N 35°54' W 005°19'0 0.0
2018-Mar-13 12:01N 35°54' W 005°19'0 0.0
2018-Mar-13 11:31N 35°54' W 005°19'0 0.0
2018-Mar-13 11:00N 35°54' W 005°19'0 0.0
2018-Mar-13 10:30N 35°54' W 005°19'0 0.0
2018-Mar-13 10:01N 35°54' W 005°19'1 2.7
2018-Mar-13 09:30N 35°55' W 005°18'241 7.5
2018-Mar-12 01:18N 37°33' W 000°42'3 6.3
2018-Mar-12 00:54N 37°33' W 000°39'2 5.8
2018-Mar-12 00:30N 37°34' W 000°36'3 5.2
2018-Mar-12 00:00N 37°35' W 000°33'3 6.0
2018-Mar-11 23:30N 37°37' W 000°31'3 6.8
2018-Mar-11 23:00N 37°40' W 000°29'4 7.6
2018-Mar-11 22:30N 37°43' W 000°27'  
2018-Mar-09 11:47N 37°39' W 000°34'312.6
2018-Mar-09 11:30N 37°36' W 000°37'612.2
2018-Mar-09 10:59N 37°33' W 000°44'  

Dump ship's entire track history